Time;durP1;ratioP1;P1;durP2;ratioP2;P2;SDS_P1;SDS_P2;PMS_P1;PMS_P2;Temp;Humidity;BMP_temperature;BMP_pressure;BME280_temperature;BME280_humidity;BME280_pressure;Samples;Min_cycle;Max_cycle;Signal;HPM_P1;HPM_P2
2023/03/13 00:01:54;;;;;;;0.00;0.00;;;9.30;99.90;;;;;;4967263;28;20146;-76
2023/03/13 00:04:23;;;;;;;0.00;0.00;;;9.30;99.90;;;;;;4969082;28;20554;-76
2023/03/13 00:06:51;;;;;;;0.00;0.00;;;9.30;99.90;;;;;;4971811;28;20109;-76
2023/03/13 00:09:19;;;;;;;0.00;0.00;;;9.20;99.90;;;;;;4970143;28;20026;-76
2023/03/13 00:11:49;;;;;;;0.00;0.00;;;9.20;99.90;;;;;;4970153;28;20037;-76
2023/03/13 00:14:20;;;;;;;0.00;0.00;;;9.00;99.90;;;;;;4990285;28;20026;-76
2023/03/13 00:16:48;;;;;;;0.00;0.00;;;9.00;99.90;;;;;;4966718;28;20078;-76
2023/03/13 00:19:17;;;;;;;0.00;0.00;;;8.90;99.90;;;;;;4969268;28;20349;-76
2023/03/13 00:21:42;;;;;;;0.00;0.00;;;8.90;99.90;;;;;;4970126;28;20033;-76
2023/03/13 00:24:10;;;;;;;0.00;0.00;;;8.90;99.90;;;;;;4972078;28;20039;-76
2023/03/13 00:26:35;;;;;;;0.00;0.00;;;8.80;99.90;;;;;;4969955;28;20025;-77
2023/03/13 00:29:03;;;;;;;0.00;0.00;;;8.80;99.90;;;;;;4973066;28;20022;-77
2023/03/13 00:31:31;;;;;;;0.00;0.00;;;8.80;99.90;;;;;;4985751;28;20026;-76
2023/03/13 00:34:00;;;;;;;0.00;0.00;;;8.80;99.90;;;;;;4984045;28;20030;-77
2023/03/13 00:36:34;;;;;;;0.00;0.00;;;8.80;99.90;;;;;;4986557;28;20041;-76
2023/03/13 00:39:01;;;;;;;0.00;0.00;;;8.70;99.90;;;;;;4980939;28;20036;-77
2023/03/13 00:41:36;;;;;;;0.00;0.00;;;8.70;99.90;;;;;;4986608;28;20026;-76
2023/03/13 00:44:02;;;;;;;0.00;0.00;;;8.70;99.90;;;;;;4963268;28;20077;-77
2023/03/13 00:46:30;;;;;;;0.00;0.00;;;8.70;99.90;;;;;;4970654;28;20027;-76
2023/03/13 00:48:58;;;;;;;0.00;0.00;;;8.60;99.90;;;;;;4967054;28;20665;-78
2023/03/13 00:51:25;;;;;;;0.00;0.00;;;8.60;99.90;;;;;;4984884;28;20034;-76
2023/03/13 00:53:52;;;;;;;0.00;0.00;;;8.50;99.90;;;;;;4967950;28;20061;-77
2023/03/13 00:56:19;;;;;;;;;;;8.40;99.90;;;;;;4964792;28;20030;-77
2023/03/13 00:58:46;;;;;;;0.00;0.00;;;8.30;99.90;;;;;;4967640;28;19910;-76
2023/03/13 01:01:16;;;;;;;0.00;0.00;;;8.20;99.90;;;;;;4985480;28;20030;-77
2023/03/13 01:03:49;;;;;;;0.00;0.00;;;8.10;99.90;;;;;;4969381;28;20110;-77
2023/03/13 01:06:20;;;;;;;0.00;0.00;;;8.10;99.90;;;;;;4974801;28;20026;-77
2023/03/13 01:08:46;;;;;;;0.00;0.00;;;8.10;99.90;;;;;;4977363;28;20021;-76
2023/03/13 01:11:18;;;;;;;0.28;0.28;;;8.10;99.90;;;;;;4988717;28;20029;-76
2023/03/13 01:13:44;;;;;;;0.00;0.00;;;8.20;99.90;;;;;;4990852;28;20649;-76
2023/03/13 01:16:17;;;;;;;0.00;0.00;;;8.10;99.90;;;;;;4962389;28;20033;-77
2023/03/13 01:18:52;;;;;;;0.00;0.00;;;8.00;99.90;;;;;;4988031;28;20034;-77
2023/03/13 01:21:19;;;;;;;0.00;0.00;;;7.90;99.90;;;;;;4972088;28;20023;-77
2023/03/13 01:23:45;;;;;;;0.00;0.00;;;8.00;99.90;;;;;;4972312;28;20030;-77
2023/03/13 01:26:11;;;;;;;0.00;0.00;;;8.00;99.90;;;;;;4970878;28;20759;-76
2023/03/13 01:28:39;;;;;;;0.00;0.00;;;7.90;99.90;;;;;;4988403;28;20884;-76
2023/03/13 01:31:14;;;;;;;0.00;0.00;;;8.00;99.90;;;;;;4975873;28;20022;-76
2023/03/13 01:33:42;;;;;;;0.00;0.00;;;7.90;99.90;;;;;;4984599;28;20030;-77
2023/03/13 01:36:08;;;;;;;0.00;0.00;;;7.90;99.90;;;;;;4968287;28;20616;-77
2023/03/13 01:38:37;;;;;;;0.00;0.00;;;7.90;99.90;;;;;;4967373;28;20066;-77
2023/03/13 01:41:07;;;;;;;0.20;0.20;;;7.80;99.90;;;;;;4986291;28;20034;-77
2023/03/13 01:43:36;;;;;;;0.00;0.00;;;7.80;99.90;;;;;;4969520;28;20125;-76
2023/03/13 01:46:17;;;;;;;0.00;0.00;;;7.70;99.90;;;;;;4970000;28;20486;-78
2023/03/13 01:48:51;;;;;;;0.00;0.00;;;7.60;99.90;;;;;;4967058;28;20468;-77
2023/03/13 01:51:19;;;;;;;0.13;0.13;;;7.60;99.90;;;;;;4965741;28;20472;-77
2023/03/13 01:53:48;;;;;;;0.00;0.00;;;7.50;99.90;;;;;;4988282;28;20100;-77
2023/03/13 01:56:21;;;;;;;0.00;0.00;;;7.40;99.90;;;;;;4989742;28;20649;-77
2023/03/13 01:58:51;;;;;;;0.00;0.00;;;7.40;99.90;;;;;;4967324;28;20144;-77
2023/03/13 02:01:19;;;;;;;0.00;0.00;;;7.30;99.90;;;;;;4985625;28;20153;-77
2023/03/13 02:03:47;;;;;;;0.00;0.00;;;7.30;99.90;;;;;;4969107;28;20042;-77
2023/03/13 02:06:19;;;;;;;0.00;0.00;;;7.30;99.90;;;;;;4967987;28;20480;-77
2023/03/13 02:09:04;;;;;;;0.00;0.00;;;7.30;99.90;;;;;;4987153;28;20031;-77
2023/03/13 02:11:55;;;;;;;0.00;0.00;;;7.20;99.90;;;;;;4985604;28;20026;-77
2023/03/13 02:14:37;;;;;;;0.00;0.00;;;7.10;99.90;;;;;;4977360;28;20022;-77
2023/03/13 02:17:04;;;;;;;0.00;0.00;;;7.10;99.90;;;;;;4987392;28;20037;-77
2023/03/13 02:19:43;;;;;;;0.52;0.15;;;7.10;99.90;;;;;;4989954;28;20476;-76
2023/03/13 02:22:42;;;;;;;0.00;0.00;;;7.10;99.90;;;;;;4983974;28;20021;-77
2023/03/13 02:25:23;;;;;;;0.00;0.00;;;7.20;99.90;;;;;;4969463;28;20030;-77
2023/03/13 02:27:58;;;;;;;0.00;0.00;;;7.30;99.90;;;;;;4965499;28;20018;-76
2023/03/13 02:30:31;;;;;;;0.00;0.00;;;7.40;99.90;;;;;;4970466;28;20113;-76
2023/03/13 02:33:01;;;;;;;0.00;0.00;;;7.40;99.90;;;;;;4988251;28;20026;-76
2023/03/13 02:35:29;;;;;;;0.00;0.00;;;7.50;99.90;;;;;;4970113;28;20154;-77
2023/03/13 02:38:07;;;;;;;0.00;0.00;;;7.60;99.90;;;;;;4986089;28;20030;-76
2023/03/13 02:40:39;;;;;;;0.00;0.00;;;7.70;99.90;;;;;;4966204;28;20080;-78
2023/03/13 02:43:11;;;;;;;0.00;0.00;;;7.70;99.90;;;;;;4988960;28;20022;-77
2023/03/13 02:45:37;;;;;;;0.00;0.00;;;7.80;99.90;;;;;;4974602;28;20022;-77
2023/03/13 02:48:10;;;;;;;;;;;7.90;99.90;;;;;;4987034;28;20100;-77
2023/03/13 02:50:37;;;;;;;0.00;0.00;;;7.90;99.90;;;;;;4962848;28;19985;-77
2023/03/13 02:53:12;;;;;;;0.00;0.00;;;8.00;99.90;;;;;;4986006;28;20022;-77
2023/03/13 02:55:41;;;;;;;0.00;0.00;;;8.00;99.90;;;;;;4983879;28;20027;-77
2023/03/13 02:58:11;;;;;;;0.00;0.00;;;8.10;99.90;;;;;;4965837;28;20022;-76
2023/03/13 03:00:44;;;;;;;0.00;0.00;;;8.00;99.90;;;;;;4988088;28;20475;-77
2023/03/13 03:03:14;;;;;;;0.00;0.00;;;8.00;99.90;;;;;;4967928;28;20030;-76
2023/03/13 03:05:40;;;;;;;0.00;0.00;;;8.00;99.90;;;;;;4985183;28;20130;-76
2023/03/13 03:08:08;;;;;;;0.00;0.00;;;8.00;99.90;;;;;;4977650;28;20577;-77
2023/03/13 03:10:40;;;;;;;0.00;0.00;;;8.00;99.90;;;;;;4984357;28;20018;-77
2023/03/13 03:13:06;;;;;;;0.00;0.00;;;8.00;99.90;;;;;;4969864;28;20018;-77
2023/03/13 03:15:38;;;;;;;;;;;8.00;99.90;;;;;;4985138;28;20018;-77
2023/03/13 03:18:07;;;;;;;0.00;0.00;;;8.00;99.90;;;;;;4969858;28;19905;-77
2023/03/13 03:20:34;;;;;;;0.00;0.00;;;8.00;99.90;;;;;;4967241;28;20693;-77
2023/03/13 03:23:18;;;;;;;0.00;0.00;;;8.10;99.90;;;;;;4984089;28;20044;-77
2023/03/13 03:25:46;;;;;;;0.00;0.00;;;8.10;99.90;;;;;;4985201;28;20026;-77
2023/03/13 03:28:13;;;;;;;0.00;0.00;;;8.20;99.90;;;;;;4984258;28;20495;-77
2023/03/13 03:30:38;;;;;;;;;;;8.30;99.90;;;;;;4964940;28;20604;-77
2023/03/13 03:33:08;;;;;;;0.00;0.00;;;8.40;99.90;;;;;;4969628;28;20380;-77
2023/03/13 03:35:37;;;;;;;0.00;0.00;;;8.50;99.90;;;;;;4968700;28;20468;-77
2023/03/13 03:38:03;;;;;;;0.00;0.00;;;8.50;99.90;;;;;;4985032;28;20023;-77
2023/03/13 03:40:31;;;;;;;0.00;0.00;;;8.60;99.90;;;;;;4969004;28;20026;-77
2023/03/13 03:42:57;;;;;;;0.00;0.00;;;8.60;99.90;;;;;;4985859;28;20108;-77
2023/03/13 03:45:29;;;;;;;0.00;0.00;;;8.50;99.90;;;;;;4972452;28;20109;-76
2023/03/13 03:47:58;;;;;;;0.00;0.00;;;8.50;99.90;;;;;;4988175;28;20061;-76
2023/03/13 03:50:26;;;;;;;0.00;0.00;;;8.50;99.90;;;;;;4969794;28;20372;-77
2023/03/13 03:52:53;;;;;;;0.00;0.00;;;8.40;99.90;;;;;;4988421;28;20030;-76
2023/03/13 03:55:24;;;;;;;;;;;8.20;99.90;;;;;;4974257;28;20093;-77
2023/03/13 03:57:51;;;;;;;0.00;0.00;;;8.10;99.90;;;;;;4985878;28;20008;-77
2023/03/13 04:00:19;;;;;;;;;;;8.10;99.90;;;;;;4982120;28;20022;-78
2023/03/13 04:02:57;;;;;;;0.00;0.00;;;8.10;99.90;;;;;;4991725;28;19916;-77
2023/03/13 04:05:29;;;;;;;0.00;0.00;;;8.10;99.90;;;;;;4972332;28;20022;-77
2023/03/13 04:07:55;;;;;;;0.00;0.00;;;8.20;99.90;;;;;;4972897;28;20077;-77
2023/03/13 04:10:24;;;;;;;0.00;0.00;;;8.30;99.90;;;;;;4988314;28;20552;-77
2023/03/13 04:13:03;;;;;;;0.00;0.00;;;8.40;99.90;;;;;;4986170;28;20101;-77
2023/03/13 04:15:32;;;;;;;0.00;0.00;;;8.50;99.90;;;;;;4988494;28;20034;-77
2023/03/13 04:17:57;;;;;;;0.00;0.00;;;8.60;99.90;;;;;;4975542;28;20030;-76
2023/03/13 04:20:27;;;;;;;0.00;0.00;;;8.80;99.90;;;;;;4986066;28;20026;-76
2023/03/13 04:22:53;;;;;;;0.00;0.00;;;8.80;99.90;;;;;;4993587;28;20081;-76
2023/03/13 04:25:19;;;;;;;0.00;0.00;;;8.80;99.90;;;;;;4987641;28;20018;-76
2023/03/13 04:27:45;;;;;;;0.00;0.00;;;8.70;99.90;;;;;;4993176;28;20262;-77
2023/03/13 04:30:13;;;;;;;0.00;0.00;;;8.70;99.90;;;;;;4971594;28;20729;-77
2023/03/13 04:32:46;;;;;;;0.00;0.00;;;8.60;99.90;;;;;;4969784;28;20058;-77
2023/03/13 04:35:14;;;;;;;0.00;0.00;;;8.50;99.90;;;;;;4970589;28;20050;-77
2023/03/13 04:37:41;;;;;;;0.00;0.00;;;8.30;99.90;;;;;;4992260;28;20030;-77
2023/03/13 04:40:07;;;;;;;;;;;8.30;99.90;;;;;;4986836;28;20076;-78
2023/03/13 04:42:33;;;;;;;0.00;0.00;;;8.20;99.90;;;;;;4976226;28;19957;-77
2023/03/13 04:45:11;;;;;;;0.00;0.00;;;8.20;99.90;;;;;;4990446;28;20072;-77
2023/03/13 04:47:43;;;;;;;0.00;0.00;;;8.20;99.90;;;;;;4987654;28;20037;-77
2023/03/13 04:50:09;;;;;;;0.00;0.00;;;8.20;99.90;;;;;;4991832;28;20045;-77
2023/03/13 04:52:37;;;;;;;0.00;0.00;;;8.20;99.90;;;;;;4974982;28;20034;-77
2023/03/13 04:55:05;;;;;;;0.00;0.00;;;8.10;99.90;;;;;;4986656;28;20088;-77
2023/03/13 04:57:32;;;;;;;0.00;0.00;;;8.00;99.90;;;;;;4988627;28;20061;-77
2023/03/13 05:00:06;;;;;;;0.00;0.00;;;8.00;99.90;;;;;;4992267;28;20030;-77
2023/03/13 05:02:38;;;;;;;0.22;0.22;;;8.00;99.90;;;;;;4988608;28;20407;-77
2023/03/13 05:05:13;;;;;;;0.00;0.00;;;7.90;99.90;;;;;;4986528;28;20509;-77
2023/03/13 05:07:39;;;;;;;0.00;0.00;;;7.80;99.90;;;;;;4988435;28;20026;-76
2023/03/13 05:10:05;;;;;;;0.00;0.00;;;7.80;99.90;;;;;;4987906;28;20080;-77
2023/03/13 05:12:32;;;;;;;0.00;0.00;;;7.70;99.90;;;;;;4975337;28;20029;-78
2023/03/13 05:15:09;;;;;;;0.00;0.00;;;7.80;99.90;;;;;;4984915;28;20063;-77
2023/03/13 05:17:36;;;;;;;0.00;0.00;;;7.80;99.90;;;;;;4971301;28;20293;-76
2023/03/13 05:20:06;;;;;;;;;;;7.80;99.90;;;;;;4973396;28;20054;-77
2023/03/13 05:22:36;;;;;;;0.00;0.00;;;7.90;99.90;;;;;;4984252;28;19905;-76
2023/03/13 05:25:04;;;;;;;0.00;0.00;;;7.90;99.90;;;;;;4990483;28;20411;-78
2023/03/13 05:27:34;;;;;;;0.00;0.00;;;8.00;99.90;;;;;;4973935;28;20302;-76
2023/03/13 05:30:03;;;;;;;0.00;0.00;;;8.00;99.90;;;;;;4987124;28;20030;-75
2023/03/13 05:32:29;;;;;;;0.00;0.00;;;8.00;99.90;;;;;;4972979;28;20041;-76
2023/03/13 05:34:56;;;;;;;0.00;0.00;;;8.00;99.90;;;;;;4991571;28;20061;-76
2023/03/13 05:37:22;;;;;;;0.00;0.00;;;7.90;99.90;;;;;;4985102;28;20829;-76
2023/03/13 05:39:49;;;;;;;0.00;0.00;;;8.00;99.90;;;;;;4984783;28;20049;-75
2023/03/13 05:42:15;;;;;;;;;;;8.00;99.90;;;;;;4988583;28;20033;-74
2023/03/13 05:44:42;;;;;;;0.00;0.00;;;8.20;99.90;;;;;;4980117;28;19918;-75
2023/03/13 05:47:12;;;;;;;0.00;0.00;;;8.20;99.90;;;;;;4985220;28;20057;-75
2023/03/13 05:49:42;;;;;;;0.00;0.00;;;8.30;99.90;;;;;;4985014;28;20029;-75
2023/03/13 05:52:14;;;;;;;0.00;0.00;;;8.40;99.90;;;;;;4985354;28;20037;-75
2023/03/13 05:54:41;;;;;;;0.00;0.00;;;8.60;99.90;;;;;;4984980;28;20026;-75
2023/03/13 05:57:07;;;;;;;0.00;0.00;;;8.60;99.90;;;;;;4970217;28;20044;-75
2023/03/13 05:59:33;;;;;;;0.00;0.00;;;8.80;99.90;;;;;;4991383;28;20053;-75
2023/03/13 06:02:00;;;;;;;;;;;9.10;99.90;;;;;;4986414;28;20109;-76
2023/03/13 06:04:26;;;;;;;0.00;0.00;;;9.20;99.90;;;;;;4968856;28;19917;-75
2023/03/13 06:06:53;;;;;;;0.07;0.07;;;9.30;99.90;;;;;;4985376;28;20022;-75
2023/03/13 06:09:21;;;;;;;0.00;0.00;;;9.40;99.90;;;;;;4971222;28;20661;-76
2023/03/13 06:11:48;;;;;;;0.00;0.00;;;9.50;99.90;;;;;;4971523;28;20027;-75
2023/03/13 06:14:15;;;;;;;0.00;0.00;;;9.60;99.90;;;;;;4969399;28;20093;-74
2023/03/13 06:16:42;;;;;;;;;;;9.80;99.90;;;;;;4985954;28;20066;-76
2023/03/13 06:19:08;;;;;;;0.00;0.00;;;9.90;99.90;;;;;;4968509;28;19916;-75
2023/03/13 06:21:35;;;;;;;0.00;0.00;;;9.80;99.90;;;;;;4968739;28;20109;-75
2023/03/13 06:24:00;;;;;;;;;;;9.80;99.90;;;;;;4971014;28;20088;-75
2023/03/13 06:26:29;;;;;;;0.00;0.00;;;10.00;99.90;;;;;;4971319;28;19906;-76
2023/03/13 06:29:01;;;;;;;0.00;0.00;;;10.40;99.90;;;;;;4988495;28;20596;-76
2023/03/13 06:31:28;;;;;;;0.00;0.00;;;11.00;99.90;;;;;;4968079;28;20019;-76
2023/03/13 06:33:56;;;;;;;0.00;0.00;;;11.40;99.90;;;;;;4969239;28;20053;-76
2023/03/13 06:36:24;;;;;;;0.00;0.00;;;11.60;99.90;;;;;;4963393;28;20408;-76
2023/03/13 06:38:52;;;;;;;0.00;0.00;;;11.70;99.90;;;;;;4968189;28;20088;-76
2023/03/13 06:41:17;;;;;;;0.00;0.00;;;11.80;99.90;;;;;;4971324;28;20023;-76
2023/03/13 06:43:43;;;;;;;0.00;0.00;;;12.50;99.90;;;;;;4986674;28;20361;-76
2023/03/13 06:46:16;;;;;;;0.00;0.00;;;13.00;99.90;;;;;;4971381;28;20026;-76
2023/03/13 06:48:46;;;;;;;0.00;0.00;;;13.30;99.90;;;;;;4988229;28;20618;-76
2023/03/13 06:51:13;;;;;;;0.00;0.00;;;13.70;99.90;;;;;;4972791;28;20092;-75
2023/03/13 06:53:39;;;;;;;0.00;0.00;;;14.30;99.80;;;;;;4982767;28;20033;-73
2023/03/13 06:56:06;;;;;;;0.00;0.00;;;14.80;98.70;;;;;;4982969;28;20044;-74
2023/03/13 06:58:32;;;;;;;;;;;15.70;96.10;;;;;;4985233;28;20041;-73
2023/03/13 07:01:09;;;;;;;0.00;0.00;;;15.80;94.10;;;;;;4980737;28;20028;-73
2023/03/13 07:03:36;;;;;;;0.00;0.00;;;16.10;94.00;;;;;;4987764;28;20038;-74
2023/03/13 07:06:02;;;;;;;;;;;16.40;93.00;;;;;;4980425;28;20479;-74
2023/03/13 07:08:27;;;;;;;0.00;0.00;;;17.10;91.40;;;;;;4966437;28;19910;-74
2023/03/13 07:10:57;;;;;;;0.13;0.05;;;17.90;88.50;;;;;;4984252;28;20029;-74
2023/03/13 07:13:23;;;;;;;0.00;0.00;;;17.60;86.20;;;;;;4980779;28;20069;-74
2023/03/13 07:15:50;;;;;;;0.00;0.00;;;18.80;83.20;;;;;;4980673;28;20065;-72
2023/03/13 07:18:16;;;;;;;0.00;0.00;;;20.90;71.70;;;;;;4985927;28;20030;-72
2023/03/13 07:20:42;;;;;;;0.00;0.00;;;21.40;65.60;;;;;;4982556;28;20040;-74
2023/03/13 07:23:08;;;;;;;0.00;0.00;;;21.50;63.50;;;;;;4985435;28;20506;-74
2023/03/13 07:25:34;;;;;;;0.00;0.00;;;20.50;64.00;;;;;;4987802;28;20022;-74
2023/03/13 07:28:00;;;;;;;0.00;0.00;;;18.80;66.10;;;;;;4991294;28;20112;-74
2023/03/13 07:30:27;;;;;;;0.00;0.00;;;17.80;69.00;;;;;;4972354;28;20419;-74
2023/03/13 07:32:52;;;;;;;0.00;0.00;;;17.50;70.00;;;;;;4991044;28;20030;-75
2023/03/13 07:35:18;;;;;;;0.00;0.00;;;16.80;71.30;;;;;;4989379;28;20647;-75
2023/03/13 07:37:45;;;;;;;0.00;0.00;;;16.40;73.00;;;;;;4987610;28;20699;-74
2023/03/13 07:40:11;;;;;;;0.00;0.00;;;15.60;75.00;;;;;;4984772;28;20157;-74
2023/03/13 07:42:40;;;;;;;0.00;0.00;;;15.30;76.30;;;;;;4991549;28;20018;-74
2023/03/13 07:45:07;;;;;;;0.00;0.00;;;14.90;78.40;;;;;;4990575;28;20037;-73
2023/03/13 07:47:36;;;;;;;0.00;0.00;;;15.10;78.30;;;;;;4985952;28;20028;-73
2023/03/13 07:50:01;;;;;;;0.00;0.00;;;14.90;79.40;;;;;;4989355;28;20025;-74
2023/03/13 07:52:27;;;;;;;2.03;0.70;;;14.40;81.40;;;;;;4970541;28;20423;-73
2023/03/13 07:54:53;;;;;;;0.43;0.40;;;14.20;83.60;;;;;;4969850;28;20043;-74
2023/03/13 07:57:20;;;;;;;0.00;0.00;;;13.90;85.80;;;;;;4988106;28;20041;-74
2023/03/13 07:59:46;;;;;;;0.00;0.00;;;14.00;88.00;;;;;;4985590;28;20041;-74
2023/03/13 08:02:15;;;;;;;0.00;0.00;;;14.20;86.50;;;;;;4988326;28;20081;-74
2023/03/13 08:04:42;;;;;;;0.00;0.00;;;14.40;84.90;;;;;;4972739;28;20755;-74
2023/03/13 08:07:11;;;;;;;0.00;0.00;;;14.80;83.90;;;;;;4985542;28;20091;-75
2023/03/13 08:09:36;;;;;;;0.00;0.00;;;16.20;80.00;;;;;;4990800;28;20467;-74
2023/03/13 08:12:02;;;;;;;0.00;0.00;;;17.50;74.90;;;;;;4990043;28;20027;-74
2023/03/13 08:14:31;;;;;;;0.00;0.00;;;18.00;71.40;;;;;;4969898;28;20266;-74
2023/03/13 08:16:57;;;;;;;0.00;0.00;;;18.30;68.90;;;;;;4987602;28;20037;-73
2023/03/13 08:19:22;;;;;;;0.00;0.00;;;17.60;68.50;;;;;;4986118;28;20031;-73
2023/03/13 08:21:49;;;;;;;0.00;0.00;;;17.20;69.30;;;;;;4970015;28;20446;-74
2023/03/13 08:24:15;;;;;;;0.00;0.00;;;16.90;70.20;;;;;;4968401;28;20672;-74
2023/03/13 08:26:41;;;;;;;0.00;0.00;;;16.50;70.20;;;;;;4969419;28;20061;-74
2023/03/13 08:29:10;;;;;;;0.00;0.00;;;16.80;70.30;;;;;;4988191;28;20257;-74
2023/03/13 08:31:41;;;;;;;0.00;0.00;;;16.50;70.90;;;;;;4971860;28;20030;-74
2023/03/13 08:34:06;;;;;;;0.00;0.00;;;17.00;69.30;;;;;;4969794;28;20057;-74
2023/03/13 08:36:35;;;;;;;0.00;0.00;;;18.20;67.50;;;;;;4985821;28;20022;-73
2023/03/13 08:39:11;;;;;;;0.00;0.00;;;18.40;65.70;;;;;;4964491;28;20281;-74
2023/03/13 08:41:39;;;;;;;0.00;0.00;;;18.20;65.40;;;;;;4985241;28;20030;-74
2023/03/13 08:44:06;;;;;;;0.00;0.00;;;18.30;64.80;;;;;;4971981;28;20028;-74
2023/03/13 08:46:34;;;;;;;0.00;0.00;;;18.00;65.30;;;;;;4985771;28;20018;-74
2023/03/13 08:49:00;;;;;;;0.00;0.00;;;17.90;65.10;;;;;;4984350;28;20392;-74
2023/03/13 08:51:28;;;;;;;0.00;0.00;;;19.20;64.20;;;;;;4986337;28;20054;-74
2023/03/13 08:53:57;;;;;;;;;;;21.40;60.00;;;;;;4982040;28;20030;-72
2023/03/13 08:56:25;;;;;;;0.00;0.00;;;22.20;55.60;;;;;;4969285;28;19920;-74
2023/03/13 08:58:54;;;;;;;0.00;0.00;;;22.10;55.20;;;;;;4989969;28;20045;-74
2023/03/13 09:01:24;;;;;;;0.00;0.00;;;22.60;54.30;;;;;;4983155;28;20019;-74
2023/03/13 09:03:50;;;;;;;0.00;0.00;;;22.40;53.00;;;;;;4983437;28;20733;-74
2023/03/13 09:06:16;;;;;;;0.00;0.00;;;22.90;52.50;;;;;;4988137;28;20037;-74
2023/03/13 09:08:43;;;;;;;0.00;0.00;;;21.30;53.30;;;;;;4981669;28;20030;-74
2023/03/13 09:11:11;;;;;;;0.00;0.00;;;20.10;55.50;;;;;;4972214;28;20035;-73
2023/03/13 09:13:41;;;;;;;0.00;0.00;;;19.40;56.80;;;;;;4969485;28;20026;-73
2023/03/13 09:16:15;;;;;;;0.00;0.00;;;19.40;57.50;;;;;;4984683;28;20022;-73
2023/03/13 09:18:41;;;;;;;0.00;0.00;;;19.30;57.80;;;;;;4981541;28;20026;-73
2023/03/13 09:21:12;;;;;;;0.00;0.00;;;19.00;58.00;;;;;;4982376;28;20738;-74
2023/03/13 09:23:38;;;;;;;0.00;0.00;;;19.40;58.60;;;;;;4987373;28;20841;-73
2023/03/13 09:26:03;;;;;;;0.05;0.00;;;19.40;58.00;;;;;;4981306;28;20026;-73
2023/03/13 09:28:31;;;;;;;0.00;0.00;;;19.70;58.00;;;;;;4983864;28;20026;-73
2023/03/13 09:31:09;;;;;;;0.00;0.00;;;20.10;56.70;;;;;;4984969;28;20073;-73
2023/03/13 09:33:35;;;;;;;0.00;0.00;;;20.70;56.70;;;;;;4984591;28;20426;-73
2023/03/13 09:36:02;;;;;;;;;;;21.80;54.00;;;;;;4986373;28;20068;-73
2023/03/13 09:38:28;;;;;;;0.00;0.00;;;22.70;52.80;;;;;;4986135;28;19906;-73
2023/03/13 09:41:01;;;;;;;0.00;0.00;;;21.70;52.70;;;;;;4981872;28;20376;-73
2023/03/13 09:43:35;;;;;;;0.00;0.00;;;21.00;54.30;;;;;;4981508;28;20085;-73
2023/03/13 09:46:07;;;;;;;0.00;0.00;;;22.40;52.40;;;;;;4971372;28;20026;-72
2023/03/13 09:48:44;;;;;;;0.08;0.08;;;25.50;50.30;;;;;;4986167;28;20018;-72
2023/03/13 09:51:14;;;;;;;0.00;0.00;;;24.80;49.80;;;;;;4981047;28;20853;-73
2023/03/13 09:53:50;;;;;;;0.00;0.00;;;23.70;49.30;;;;;;4980698;28;20038;-72
2023/03/13 09:56:19;;;;;;;0.00;0.00;;;22.80;51.00;;;;;;4985703;28;20509;-73
2023/03/13 09:59:03;;;;;;;0.00;0.00;;;22.30;51.80;;;;;;4983006;28;20069;-73
2023/03/13 10:01:33;;;;;;;0.00;0.00;;;21.00;52.90;;;;;;4981423;28;20121;-74
2023/03/13 10:04:11;;;;;;;0.00;0.00;;;19.20;56.40;;;;;;4969814;28;20042;-73
2023/03/13 10:06:41;;;;;;;0.00;0.00;;;18.30;57.70;;;;;;4984143;28;20057;-74
2023/03/13 10:09:32;;;;;;;0.00;0.00;;;18.40;58.50;;;;;;4981505;28;20014;-73
2023/03/13 10:12:16;;;;;;;0.00;0.00;;;18.40;58.30;;;;;;4970472;28;20018;-75
2023/03/13 10:14:48;;;;;;;0.40;0.22;;;18.70;57.60;;;;;;4982488;28;20029;-74
2023/03/13 10:17:34;;;;;;;0.00;0.00;;;18.10;57.80;;;;;;4980604;28;20033;-73
2023/03/13 10:20:41;;;;;;;0.00;0.00;;;17.70;59.00;;;;;;4985092;28;20038;-73
2023/03/13 10:23:24;;;;;;;0.28;0.28;;;17.20;60.60;;;;;;4980659;28;20110;-74
2023/03/13 10:25:49;;;;;;;0.00;0.00;;;16.80;60.30;;;;;;4968609;28;20029;-74
2023/03/13 10:28:19;;;;;;;0.00;0.00;;;16.40;60.40;;;;;;4963134;28;20710;-74
2023/03/13 10:30:53;;;;;;;0.00;0.00;;;16.50;60.60;;;;;;4967489;28;20045;-73
2023/03/13 10:33:24;;;;;;;0.00;0.00;;;16.20;61.10;;;;;;4985615;28;20157;-73
2023/03/13 10:36:09;;;;;;;0.00;0.00;;;16.30;60.50;;;;;;4978018;28;20846;-73
2023/03/13 10:38:50;;;;;;;0.00;0.00;;;16.30;60.90;;;;;;4977147;28;20101;-73
2023/03/13 10:41:29;;;;;;;0.00;0.00;;;16.20;62.40;;;;;;4979936;28;20026;-73
2023/03/13 10:44:19;;;;;;;0.10;0.10;;;16.50;62.50;;;;;;4969328;28;20033;-74
2023/03/13 10:46:48;;;;;;;0.15;0.10;;;16.80;59.80;;;;;;4982342;28;20161;-74
2023/03/13 10:49:18;;;;;;;0.00;0.00;;;17.10;58.90;;;;;;4969787;28;20030;-74
2023/03/13 10:51:53;;;;;;;0.00;0.00;;;16.60;59.40;;;;;;4981655;28;20035;-74
2023/03/13 10:54:31;;;;;;;0.00;0.00;;;16.60;59.40;;;;;;4968799;28;20026;-74
2023/03/13 10:57:30;;;;;;;0.00;0.00;;;16.80;59.20;;;;;;4981502;28;20031;-74
2023/03/13 10:59:57;;;;;;;0.00;0.00;;;16.80;58.90;;;;;;4926884;28;20443;-73
2023/03/13 11:02:37;;;;;;;0.00;0.00;;;16.70;58.90;;;;;;4968770;28;20042;-74
2023/03/13 11:05:32;;;;;;;0.00;0.00;;;16.40;59.80;;;;;;4991349;28;20894;-74
2023/03/13 11:07:58;;;;;;;0.30;0.30;;;16.20;60.00;;;;;;4955438;28;20034;-74
2023/03/13 11:10:28;;;;;;;0.25;0.15;;;15.80;61.10;;;;;;4985527;28;20022;-74
2023/03/13 11:12:57;;;;;;;0.45;0.22;;;15.80;60.90;;;;;;4990093;28;20109;-74
2023/03/13 11:15:30;;;;;;;0.00;0.00;;;15.70;61.60;;;;;;4982140;28;20019;-74
2023/03/13 11:18:11;;;;;;;0.15;0.15;;;15.90;61.80;;;;;;4985693;28;20093;-74
2023/03/13 11:20:39;;;;;;;0.00;0.00;;;15.60;61.40;;;;;;4985958;28;20014;-74
2023/03/13 11:23:49;;;;;;;0.00;0.00;;;15.60;62.30;;;;;;4985472;28;20022;-74
2023/03/13 11:26:56;;;;;;;0.00;0.00;;;15.90;61.40;;;;;;4965858;28;20117;-74
2023/03/13 11:29:41;;;;;;;1.02;0.10;;;15.60;60.80;;;;;;4921278;28;20036;-73
2023/03/13 11:32:44;;;;;;;0.00;0.00;;;15.70;61.30;;;;;;4968555;28;20029;-74
2023/03/13 11:35:36;;;;;;;0.00;0.00;;;15.70;61.70;;;;;;4973532;28;20540;-74
2023/03/13 11:38:28;;;;;;;0.00;0.00;;;15.40;62.40;;;;;;4980988;28;20030;-74
2023/03/13 11:41:41;;;;;;;0.00;0.00;;;15.50;62.10;;;;;;4965979;28;20033;-73
2023/03/13 11:44:29;;;;;;;0.45;0.25;;;15.50;62.00;;;;;;4911093;29;20027;-74
2023/03/13 11:47:11;;;;;;;0.65;0.35;;;15.80;61.80;;;;;;4979901;28;20037;-74
2023/03/13 11:49:42;;;;;;;0.00;0.00;;;15.80;61.40;;;;;;4969571;28;20483;-73
2023/03/13 11:52:28;;;;;;;0.00;0.00;;;15.70;62.70;;;;;;4969576;28;20038;-73
2023/03/13 11:55:14;;;;;;;0.00;0.00;;;15.60;62.70;;;;;;4984296;28;20113;-74
2023/03/13 11:58:08;;;;;;;0.00;0.00;;;15.60;62.50;;;;;;4968191;28;20112;-74
2023/03/13 12:00:40;;;;;;;0.00;0.00;;;15.50;62.90;;;;;;4954560;28;20048;-73
2023/03/13 12:03:21;;;;;;;0.00;0.00;;;15.50;63.10;;;;;;4989779;28;20030;-73
2023/03/13 12:05:56;;;;;;;0.00;0.00;;;15.50;63.40;;;;;;4983485;28;20422;-73
2023/03/13 12:08:37;;;;;;;0.00;0.00;;;15.60;62.80;;;;;;4983372;28;20476;-73
2023/03/13 12:11:22;;;;;;;0.00;0.00;;;15.50;63.10;;;;;;4964597;28;20038;-73
2023/03/13 12:14:00;;;;;;;0.00;0.00;;;15.50;63.10;;;;;;4987740;28;20468;-73
2023/03/13 12:16:40;;;;;;;0.30;0.10;;;15.20;63.50;;;;;;4983481;28;20018;-73
2023/03/13 12:19:17;;;;;;;0.00;0.00;;;15.30;63.50;;;;;;4985478;28;20068;-73
2023/03/13 12:22:25;;;;;;;0.00;0.00;;;15.40;63.80;;;;;;4969075;28;20061;-72
2023/03/13 12:25:00;;;;;;;0.00;0.00;;;15.60;62.80;;;;;;4976875;28;20038;-74
2023/03/13 12:27:33;;;;;;;0.00;0.00;;;15.90;63.10;;;;;;4966910;28;20026;-73
2023/03/13 12:30:23;;;;;;;0.00;0.00;;;16.10;62.20;;;;;;4986366;28;20109;-74
2023/03/13 12:33:23;;;;;;;0.00;0.00;;;16.40;61.50;;;;;;4967474;28;20025;-73
2023/03/13 12:36:04;;;;;;;0.00;0.00;;;16.60;62.00;;;;;;4967996;28;20500;-73
2023/03/13 12:38:37;;;;;;;0.00;0.00;;;16.60;61.80;;;;;;4966379;28;20025;-73
2023/03/13 12:41:12;;;;;;;0.00;0.00;;;16.60;61.50;;;;;;4985708;28;20037;-73
2023/03/13 12:43:41;;;;;;;0.00;0.00;;;16.70;60.50;;;;;;4985163;28;20026;-78
2023/03/13 12:46:39;;;;;;;0.15;0.15;;;16.60;60.70;;;;;;4985450;28;20057;-75
2023/03/13 12:49:19;;;;;;;0.00;0.00;;;16.60;61.80;;;;;;4969448;28;20467;-75
2023/03/13 12:52:15;;;;;;;0.00;0.00;;;16.90;61.30;;;;;;4982623;28;20042;-75
2023/03/13 12:55:06;;;;;;;0.00;0.00;;;16.80;60.90;;;;;;4979947;28;20022;-75
2023/03/13 12:57:43;;;;;;;0.00;0.00;;;16.80;61.30;;;;;;4991411;28;20014;-75
2023/03/13 13:00:21;;;;;;;0.00;0.00;;;16.70;60.90;;;;;;4985077;28;20030;-75
2023/03/13 13:03:00;;;;;;;0.00;0.00;;;16.80;60.80;;;;;;4970714;28;20027;-76
2023/03/13 13:05:26;;;;;;;0.00;0.00;;;16.50;60.40;;;;;;4969948;28;20089;-75
2023/03/13 13:07:55;;;;;;;0.00;0.00;;;16.10;61.70;;;;;;4986065;28;20026;-76
2023/03/13 13:10:26;;;;;;;0.00;0.00;;;16.00;62.60;;;;;;4974312;28;20289;-75
2023/03/13 13:13:14;;;;;;;0.00;0.00;;;15.90;62.30;;;;;;4985268;28;20026;-76
2023/03/13 13:16:10;;;;;;;0.20;0.20;;;15.80;62.80;;;;;;4967785;28;20026;-76
2023/03/13 13:18:36;;;;;;;0.00;0.00;;;15.70;62.70;;;;;;4985295;28;20022;-77
2023/03/13 13:21:14;;;;;;;0.00;0.00;;;15.70;62.50;;;;;;4984824;28;20471;-76